createdAt,value
2017-04-24T00:00:48.301Z,7.9
2017-04-24T00:01:50.125Z,7.9
2017-04-24T00:02:52.719Z,8
2017-04-24T00:03:54.557Z,8.3
2017-04-24T00:04:56.396Z,8.3
2017-04-24T00:05:58.202Z,7.9
2017-04-24T00:07:00.009Z,8.2
2017-04-24T00:08:01.807Z,8.2
2017-04-24T00:09:03.607Z,8.4
2017-04-24T00:10:05.401Z,8.2
2017-04-24T00:11:07.200Z,8.2
2017-04-24T00:12:08.994Z,8.2
2017-04-24T00:13:10.851Z,8.3
2017-04-24T00:14:12.700Z,8.4
2017-04-24T00:15:14.525Z,8.4
2017-04-24T00:16:16.344Z,8.3
2017-04-24T00:17:18.146Z,8.4
2017-04-24T00:18:20.048Z,8.7
2017-04-24T00:19:21.932Z,8.5
2017-04-24T00:20:23.730Z,8.5
2017-04-24T00:21:25.528Z,8.6
2017-04-24T00:22:27.402Z,8.6
2017-04-24T00:23:29.200Z,8.4
2017-04-24T00:24:30.999Z,8.3
2017-04-24T00:25:32.995Z,8.3
2017-04-24T00:26:35.192Z,8.4
2017-04-24T00:27:37.061Z,8.4
2017-04-24T00:28:39.265Z,8.4
2017-04-24T00:29:41.080Z,8.4
2017-04-24T00:30:42.890Z,8.4
2017-04-24T00:31:44.710Z,8.3
2017-04-24T00:32:46.540Z,8.3
2017-04-24T00:33:48.332Z,8.5
2017-04-24T00:34:50.132Z,8.5
2017-04-24T00:35:51.927Z,8.8
2017-04-24T00:36:53.821Z,8.6
2017-04-24T00:37:56.007Z,8.4
2017-04-24T00:38:58.215Z,8.7
2017-04-24T00:40:00.217Z,8.8
2017-04-24T00:41:02.028Z,8.4
2017-04-24T00:42:03.831Z,8.4
2017-04-24T00:43:05.628Z,8.4
2017-04-24T00:44:07.421Z,8.4
2017-04-24T00:45:09.557Z,8.4
2017-04-24T00:46:11.380Z,8.5
2017-04-24T00:47:13.188Z,8.5
2017-04-24T00:48:14.994Z,8.2
2017-04-24T00:49:16.810Z,8.2
2017-04-24T00:50:18.648Z,8.2
2017-04-24T00:51:20.532Z,8.3
2017-04-24T00:52:22.671Z,8.5
2017-04-24T00:53:24.905Z,8.5
2017-04-24T00:54:27.741Z,8.2
2017-04-24T00:55:29.549Z,8
2017-04-24T00:56:31.344Z,8
2017-04-24T00:57:33.138Z,8.2
2017-04-24T00:58:34.937Z,8.2
2017-04-24T00:59:37.123Z,8.2
2017-04-24T01:00:39.273Z,8.3
2017-04-24T01:01:41.109Z,8.2
2017-04-24T01:02:42.915Z,7.8
2017-04-24T01:03:44.727Z,7.7
2017-04-24T01:04:46.570Z,7.9
2017-04-24T01:05:48.472Z,8.3
2017-04-24T01:06:50.693Z,8
2017-04-24T01:07:52.490Z,8.2
2017-04-24T01:08:54.286Z,8.2
2017-04-24T01:09:56.080Z,8.1
2017-04-24T01:10:58.238Z,8.1
2017-04-24T01:12:00.389Z,8
2017-04-24T01:13:02.230Z,8
2017-04-24T01:14:04.036Z,8.2
2017-04-24T01:15:05.837Z,8.2
2017-04-24T01:16:07.651Z,7.9
2017-04-24T01:17:09.443Z,8.3
2017-04-24T01:18:11.239Z,8.3
2017-04-24T01:19:13.036Z,8.4
2017-04-24T01:20:14.842Z,8.3
2017-04-24T01:21:16.638Z,8.3
2017-04-24T01:22:18.923Z,8.4
2017-04-24T01:23:21.053Z,8.3
2017-04-24T01:24:23.589Z,8.4
2017-04-24T01:25:25.393Z,8.4
2017-04-24T01:26:27.197Z,8.3
2017-04-24T01:27:28.991Z,8.3
2017-04-24T01:28:31.701Z,8.2
2017-04-24T01:29:34.079Z,8.3
2017-04-24T01:30:35.931Z,8.1
2017-04-24T01:31:37.769Z,8.1
2017-04-24T01:32:39.576Z,8.2
2017-04-24T01:33:41.755Z,8.2
2017-04-24T01:34:43.567Z,8.1
2017-04-24T01:35:45.365Z,8.2
2017-04-24T01:36:47.162Z,8.2
2017-04-24T01:37:48.960Z,7.9
2017-04-24T01:38:50.752Z,7.9
2017-04-24T01:39:52.545Z,7.9
2017-04-24T01:40:54.392Z,8
2017-04-24T01:41:56.286Z,8
2017-04-24T01:42:58.649Z,8
2017-04-24T01:44:00.786Z,8.1
2017-04-24T01:45:02.584Z,8.1
2017-04-24T01:46:04.504Z,8
2017-04-24T01:47:06.300Z,7.9
2017-04-24T01:48:08.499Z,7.8
2017-04-24T01:49:10.293Z,8.1
2017-04-24T01:50:12.111Z,8.3
2017-04-24T01:51:14.247Z,8.3
2017-04-24T01:52:16.051Z,8.1
2017-04-24T01:53:17.853Z,8.1
2017-04-24T01:54:19.656Z,8.5
2017-04-24T01:55:21.456Z,8.3
2017-04-24T01:56:23.247Z,7.8
2017-04-24T01:57:25.045Z,7.8
2017-04-24T01:58:26.841Z,7.9
2017-04-24T01:59:28.635Z,8
2017-04-24T02:00:30.440Z,7.9
2017-04-24T02:01:32.611Z,8.2
2017-04-24T02:02:34.610Z,8.1
2017-04-24T02:03:36.407Z,8
2017-04-24T02:04:38.212Z,8
2017-04-24T02:05:40.006Z,8
2017-04-24T02:06:41.801Z,8
2017-04-24T02:07:43.598Z,8.7
2017-04-24T02:08:45.394Z,8.7
2017-04-24T02:09:47.572Z,8.4
2017-04-24T02:10:49.381Z,8
2017-04-24T02:11:51.179Z,8.1
2017-04-24T02:12:53.356Z,8.2
2017-04-24T02:13:55.152Z,8.2
2017-04-24T02:14:57.623Z,8.1
2017-04-24T02:15:59.419Z,8.2
2017-04-24T02:17:01.312Z,8
2017-04-24T02:18:03.114Z,8.1
2017-04-24T02:19:04.920Z,8.1
2017-04-24T02:20:06.718Z,8.1
2017-04-24T02:21:08.892Z,8.1
2017-04-24T02:22:10.889Z,8.3
2017-04-24T02:23:12.706Z,8.2
2017-04-24T02:24:14.868Z,8.2
2017-04-24T02:25:16.691Z,8.3
2017-04-24T02:26:18.493Z,8.2
2017-04-24T02:27:20.302Z,8.1
2017-04-24T02:28:22.100Z,8
2017-04-24T02:29:24.283Z,8
2017-04-24T02:30:26.077Z,7.7
2017-04-24T02:31:28.264Z,8.2
2017-04-24T02:32:30.059Z,8.2
2017-04-24T02:33:31.857Z,8.2
2017-04-24T02:34:33.985Z,8.4
2017-04-24T02:35:35.847Z,8.2
2017-04-24T02:36:37.643Z,8.1
2017-04-24T02:37:39.782Z,8.1
2017-04-24T02:38:41.616Z,8.3
2017-04-24T02:39:43.794Z,8.1
2017-04-24T02:40:45.988Z,8.5
2017-04-24T02:41:48.357Z,8.3
2017-04-24T02:42:50.894Z,8.4
2017-04-24T02:43:53.247Z,8.2
2017-04-24T02:44:55.040Z,8.2
2017-04-24T02:45:56.844Z,8.4
2017-04-24T02:46:58.679Z,8.5
2017-04-24T02:48:00.841Z,8.6
2017-04-24T02:49:02.844Z,8.7
2017-04-24T02:50:04.700Z,8.2
2017-04-24T02:51:06.847Z,8.3
2017-04-24T02:52:09.230Z,8.3
2017-04-24T02:53:26.133Z,8.3
2017-04-24T02:54:27.977Z,8.2
2017-04-24T02:55:29.834Z,8.2
2017-04-24T02:56:31.670Z,8.1
2017-04-24T02:57:33.474Z,8.1
2017-04-24T02:58:35.616Z,8.6
2017-04-24T02:59:37.461Z,8.3
2017-04-24T03:00:39.269Z,8.2
2017-04-24T03:01:41.073Z,8.4
2017-04-24T03:02:42.872Z,8.3
2017-04-24T03:03:44.669Z,8.5
2017-04-24T03:04:46.470Z,8.5
2017-04-24T03:05:48.260Z,8.2
2017-04-24T03:06:50.057Z,8.5
2017-04-24T03:07:52.542Z,8.6
2017-04-24T03:08:54.418Z,8.6
2017-04-24T03:09:56.224Z,8.6
2017-04-24T03:10:58.027Z,8.3
2017-04-24T03:11:59.824Z,8.4
2017-04-24T03:13:01.619Z,8.1
2017-04-24T03:14:03.411Z,8.2
2017-04-24T03:15:05.211Z,8.4
2017-04-24T03:16:07.011Z,8.3
2017-04-24T03:17:08.851Z,8.5
2017-04-24T03:18:10.983Z,8.6
2017-04-24T03:19:13.162Z,8.6
2017-04-24T03:20:15.299Z,8.9
2017-04-24T03:21:17.147Z,8.9
2017-04-24T03:22:18.969Z,8.9
2017-04-24T03:23:21.139Z,8.8
2017-04-24T03:24:23.680Z,8.7
2017-04-24T03:25:25.509Z,8.9
2017-04-24T03:26:27.318Z,8.7
2017-04-24T03:27:29.118Z,8.7
2017-04-24T03:28:31.305Z,8.8
2017-04-24T03:29:33.107Z,8.7
2017-04-24T03:30:34.913Z,8.3
2017-04-24T03:31:36.706Z,8.4
2017-04-24T03:32:38.901Z,8.6
2017-04-24T03:33:41.108Z,8.5
2017-04-24T03:34:42.914Z,8.3
2017-04-24T03:35:44.708Z,8.5
2017-04-24T03:36:46.509Z,8.2
2017-04-24T03:37:49.055Z,8.5
2017-04-24T03:38:51.252Z,8.3
2017-04-24T03:39:53.069Z,8.6
2017-04-24T03:40:54.877Z,8.7
2017-04-24T03:41:56.674Z,8.6
2017-04-24T03:42:58.469Z,8.5
2017-04-24T03:44:00.269Z,8.5
2017-04-24T03:45:02.071Z,8.2
2017-04-24T03:46:03.872Z,8.2
2017-04-24T03:47:05.666Z,8.5
2017-04-24T03:48:07.494Z,8.4
2017-04-24T03:49:09.290Z,8.4
2017-04-24T03:50:11.088Z,8.6
2017-04-24T03:51:13.230Z,8.5
2017-04-24T03:52:15.028Z,8
2017-04-24T03:53:16.825Z,8.4
2017-04-24T03:54:18.666Z,8.6
2017-04-24T03:55:20.694Z,8.4
2017-04-24T03:56:22.764Z,8.6
2017-04-24T03:57:24.567Z,8.4
2017-04-24T03:58:26.368Z,8.2
2017-04-24T03:59:29.270Z,8.5
2017-04-24T04:00:31.408Z,8.3
2017-04-24T04:01:33.236Z,8.1
2017-04-24T04:02:35.030Z,8.5
2017-04-24T04:03:37.162Z,8.6
2017-04-24T04:04:38.960Z,8.1
2017-04-24T04:05:40.781Z,8
2017-04-24T04:06:42.576Z,8.4
2017-04-24T04:07:44.376Z,8
2017-04-24T04:08:46.504Z,8
2017-04-24T04:09:48.304Z,8.3
2017-04-24T04:10:50.108Z,8.1
2017-04-24T04:11:51.925Z,8.2
2017-04-24T04:12:54.052Z,8.1
2017-04-24T04:13:57.403Z,8.2
2017-04-24T04:14:59.258Z,8.1
2017-04-24T04:16:01.391Z,8.3
2017-04-24T04:17:03.258Z,8.3
2017-04-24T04:18:05.253Z,8.4
2017-04-24T04:19:07.068Z,8.2
2017-04-24T04:20:08.869Z,8.5
2017-04-24T04:21:11.002Z,8
2017-04-24T04:22:13.738Z,8.3
2017-04-24T04:23:15.648Z,8.6
2017-04-24T04:24:18.335Z,8.3
2017-04-24T04:25:20.190Z,8.2
2017-04-24T04:26:22.389Z,8.3
2017-04-24T04:27:24.191Z,8.2
2017-04-24T04:28:26.008Z,8.3
2017-04-24T04:29:27.814Z,8.3
2017-04-24T04:30:29.630Z,8
2017-04-24T04:31:31.763Z,8.2
2017-04-24T04:32:33.610Z,8.1
2017-04-24T04:33:35.409Z,8.1
2017-04-24T04:34:37.218Z,7.9
2017-04-24T04:35:39.380Z,8.1
2017-04-24T04:36:56.902Z,8.2
2017-04-24T04:37:59.057Z,8.1
2017-04-24T04:39:00.851Z,8.5
2017-04-24T04:40:02.656Z,8.3
2017-04-24T04:41:05.058Z,8.3
2017-04-24T04:42:07.540Z,8.6
2017-04-24T04:43:09.902Z,8.5
2017-04-24T04:44:11.728Z,8.2
2017-04-24T04:45:13.544Z,8.3
2017-04-24T04:46:15.341Z,8.4
2017-04-24T04:47:17.133Z,8.5
2017-04-24T04:48:19.627Z,8.5
2017-04-24T04:49:21.523Z,8.5
2017-04-24T04:50:23.345Z,8.5
2017-04-24T04:51:25.168Z,8.5
2017-04-24T04:52:26.963Z,8.3
2017-04-24T04:53:28.762Z,8.2
2017-04-24T04:54:30.844Z,8.8
2017-04-24T04:55:32.683Z,8.4
2017-04-24T04:56:34.516Z,8.6
2017-04-24T04:57:36.647Z,8.5
2017-04-24T04:58:38.480Z,8.7
2017-04-24T04:59:40.277Z,8.7
2017-04-24T05:00:42.072Z,8.6
2017-04-24T05:01:44.201Z,8.7
2017-04-24T05:02:46.070Z,8.6
2017-04-24T05:03:48.563Z,8.2
2017-04-24T05:04:50.439Z,8.2
2017-04-24T05:05:52.238Z,8.5
2017-04-24T05:06:54.043Z,8
2017-04-24T05:07:55.839Z,8.7
2017-04-24T05:08:57.636Z,8.5
2017-04-24T05:09:59.427Z,8.2
2017-04-24T05:11:01.717Z,8.3
2017-04-24T05:12:03.582Z,8.4
2017-04-24T05:13:05.427Z,8.6
2017-04-24T05:14:07.569Z,8.6
2017-04-24T05:15:09.420Z,8.5
2017-04-24T05:16:11.235Z,8.6
2017-04-24T05:17:13.031Z,8.4
2017-04-24T05:18:15.172Z,8.4
2017-04-24T05:19:16.971Z,8.3
2017-04-24T05:20:19.116Z,8.5
2017-04-24T05:21:20.925Z,8.4
2017-04-24T05:22:22.926Z,8.6
2017-04-24T05:23:24.925Z,8.3
2017-04-24T05:24:26.926Z,8.4
2017-04-24T05:25:28.726Z,8.4
2017-04-24T05:26:30.532Z,8.7
2017-04-24T05:27:32.334Z,8.7
2017-04-24T05:28:34.466Z,8.8
2017-04-24T05:29:36.511Z,8.7
2017-04-24T05:30:38.315Z,8.8
2017-04-24T05:31:40.116Z,9
2017-04-24T05:32:41.911Z,8.9
2017-04-24T05:33:44.047Z,9
2017-04-24T05:34:45.893Z,8.5
2017-04-24T05:35:47.766Z,8.6
2017-04-24T05:36:49.566Z,8.5
2017-04-24T05:37:51.364Z,9.1
2017-04-24T05:38:53.301Z,8.7
2017-04-24T05:39:55.121Z,9.3
2017-04-24T05:40:56.938Z,8.7
2017-04-24T05:41:58.939Z,8.7
2017-04-24T05:43:01.380Z,8.8
2017-04-24T05:44:03.234Z,9.1
2017-04-24T05:45:05.031Z,9.1
2017-04-24T05:46:06.832Z,9.4
2017-04-24T05:47:08.964Z,9.1
2017-04-24T05:48:11.101Z,9
2017-04-24T05:49:13.104Z,9.5
2017-04-24T05:50:15.714Z,9.3
2017-04-24T05:51:17.557Z,9.1
2017-04-24T05:52:19.373Z,9.1
2017-04-24T05:53:21.193Z,8.9
2017-04-24T05:54:22.989Z,9.3
2017-04-24T05:55:24.788Z,9
2017-04-24T05:56:26.860Z,8.8
2017-04-24T05:57:28.713Z,8.9
2017-04-24T05:58:30.524Z,9.2
2017-04-24T05:59:32.323Z,9.2
2017-04-24T06:00:34.132Z,9.2
2017-04-24T06:01:35.946Z,9.5
2017-04-24T06:02:37.764Z,9.5
2017-04-24T06:03:39.560Z,9.3
2017-04-24T06:04:41.369Z,9.2
2017-04-24T06:05:43.167Z,9.1
2017-04-24T06:06:45.066Z,9.2
2017-04-24T06:07:46.865Z,9.2
2017-04-24T06:08:49.208Z,9.3
2017-04-24T06:09:51.066Z,9.4
2017-04-24T06:10:52.876Z,9.4
2017-04-24T06:11:54.669Z,9.5
2017-04-24T06:12:56.478Z,9.4
2017-04-24T06:13:58.276Z,9.7
2017-04-24T06:15:00.077Z,9.7
2017-04-24T06:16:01.877Z,9.3
2017-04-24T06:17:03.690Z,9.5
2017-04-24T06:18:05.485Z,9.7
2017-04-24T06:19:07.629Z,9.9
2017-04-24T06:20:09.436Z,9.8
2017-04-24T06:21:11.564Z,9.4
2017-04-24T06:22:13.385Z,9.7
2017-04-24T06:23:15.207Z,9.5
2017-04-24T06:24:17.016Z,9.5
2017-04-24T06:25:18.874Z,9.8
2017-04-24T06:26:20.726Z,9.7
2017-04-24T06:27:22.575Z,9.9
2017-04-24T06:28:24.734Z,9.7
2017-04-24T06:29:26.974Z,9.8
2017-04-24T06:30:29.821Z,9.7
2017-04-24T06:31:32.503Z,9.7
2017-04-24T06:32:35.325Z,10.1
2017-04-24T06:33:37.530Z,10.1
2017-04-24T06:34:39.948Z,10.2
2017-04-24T06:35:42.726Z,9.9
2017-04-24T06:36:45.552Z,9.7
2017-04-24T06:37:48.370Z,9.7
2017-04-24T06:38:51.449Z,10.3
2017-04-24T06:39:53.915Z,9.5
2017-04-24T06:40:56.533Z,9.9
2017-04-24T06:41:58.332Z,10.1
2017-04-24T06:43:00.132Z,9.9
2017-04-24T06:44:01.936Z,9.9
2017-04-24T06:45:03.741Z,10.1
2017-04-24T06:46:05.567Z,10.4
2017-04-24T06:47:07.572Z,10.2
2017-04-24T06:48:09.413Z,10.2
2017-04-24T06:49:11.257Z,10.3
2017-04-24T06:50:13.840Z,10.5
2017-04-24T06:51:16.031Z,10.9
2017-04-24T06:52:17.856Z,10.6
2017-04-24T06:53:20.069Z,10.9
2017-04-24T06:54:21.868Z,11.2
2017-04-24T06:55:23.699Z,11
2017-04-24T06:56:25.847Z,10.5
2017-04-24T06:57:28.140Z,10.5
2017-04-24T06:58:29.990Z,10.6
2017-04-24T06:59:31.813Z,10.8
2017-04-24T07:00:33.612Z,10.8
2017-04-24T07:01:35.413Z,10.6
2017-04-24T07:02:37.216Z,10.6
2017-04-24T07:03:39.361Z,10.8
2017-04-24T07:04:41.181Z,10.6
2017-04-24T07:05:42.988Z,10.7
2017-04-24T07:06:44.791Z,10.5
2017-04-24T07:07:47.290Z,10.6
2017-04-24T07:08:49.294Z,10.7
2017-04-24T07:09:51.141Z,10.6
2017-04-24T07:10:53.147Z,10.6
2017-04-24T07:11:54.971Z,10.7
2017-04-24T07:12:56.774Z,11
2017-04-24T07:13:58.952Z,10.7
2017-04-24T07:15:00.754Z,10.6
2017-04-24T07:16:03.039Z,10.6
2017-04-24T07:17:04.898Z,10.6
2017-04-24T07:18:06.747Z,10.5
2017-04-24T07:19:08.596Z,10.9
2017-04-24T07:20:10.444Z,10.9
2017-04-24T07:21:12.285Z,11
2017-04-24T07:22:14.287Z,10.8
2017-04-24T07:23:16.442Z,10.6
2017-04-24T07:24:18.675Z,10.8
2017-04-24T07:25:20.476Z,11.2
2017-04-24T07:26:22.277Z,10.6
2017-04-24T07:27:24.077Z,10.6
2017-04-24T07:28:25.877Z,10.8
2017-04-24T07:29:27.684Z,10.9
2017-04-24T07:30:29.823Z,10.9
2017-04-24T07:31:31.657Z,11.4
2017-04-24T07:32:33.456Z,11
2017-04-24T07:33:35.250Z,10.7
2017-04-24T07:34:37.049Z,11
2017-04-24T07:35:38.849Z,11.2
2017-04-24T07:36:40.983Z,11.4
2017-04-24T07:37:42.818Z,11.3
2017-04-24T07:38:44.628Z,11.4
2017-04-24T07:39:46.483Z,11.5
2017-04-24T07:40:48.707Z,12
2017-04-24T07:41:51.097Z,12.2
2017-04-24T07:42:52.941Z,11.7
2017-04-24T07:43:54.790Z,11.3
2017-04-24T07:44:56.597Z,11.9
2017-04-24T07:45:58.401Z,12
2017-04-24T07:47:00.196Z,12
2017-04-24T07:48:02.140Z,11.6
2017-04-24T07:49:03.961Z,11.7
2017-04-24T07:50:05.764Z,11.9
2017-04-24T07:51:07.569Z,12.3
2017-04-24T07:52:09.712Z,12.6
2017-04-24T07:53:11.564Z,12.5
2017-04-24T07:54:13.399Z,12.6
2017-04-24T07:55:15.200Z,12.8
2017-04-24T07:56:17.091Z,12.7
2017-04-24T07:57:18.902Z,12.6
2017-04-24T07:58:20.716Z,12.6
2017-04-24T07:59:22.522Z,12.2
2017-04-24T08:00:24.814Z,12.7
2017-04-24T08:01:26.669Z,12.3
2017-04-24T08:02:28.502Z,12.2
2017-04-24T08:03:30.300Z,12.2
2017-04-24T08:04:32.491Z,11.8
2017-04-24T08:05:34.292Z,11.9
2017-04-24T08:06:36.092Z,12.5
2017-04-24T08:07:38.478Z,12
2017-04-24T08:08:40.277Z,11.9
2017-04-24T08:09:42.078Z,12
2017-04-24T08:10:43.878Z,12
2017-04-24T08:11:45.679Z,12.1
2017-04-24T08:12:47.479Z,12.2
2017-04-24T08:13:49.288Z,12.2
2017-04-24T08:14:51.089Z,11.7
2017-04-24T08:15:52.888Z,11.9
2017-04-24T08:16:54.690Z,11.4
2017-04-24T08:17:56.491Z,11.5
2017-04-24T08:18:58.400Z,11.4
2017-04-24T08:20:00.198Z,11.5
2017-04-24T08:21:02.000Z,11.9
2017-04-24T08:22:04.140Z,12.1
2017-04-24T08:23:05.962Z,11.7
2017-04-24T08:24:07.771Z,12.3
2017-04-24T08:25:09.575Z,11.9
2017-04-24T08:26:11.379Z,11.7
2017-04-24T08:27:13.184Z,11.6
2017-04-24T08:28:14.979Z,11.8
2017-04-24T08:29:16.783Z,11.5
2017-04-24T08:30:18.582Z,11.7
2017-04-24T08:31:20.724Z,12
2017-04-24T08:32:22.912Z,11.9
2017-04-24T08:33:24.727Z,11.3
2017-04-24T08:34:26.529Z,11.9
2017-04-24T08:35:28.360Z,11.6
2017-04-24T08:36:30.162Z,12
2017-04-24T08:37:31.962Z,12.1
2017-04-24T08:38:34.100Z,11.9
2017-04-24T08:39:36.302Z,11.7
2017-04-24T08:40:38.108Z,11.7
2017-04-24T08:41:39.904Z,11.8
2017-04-24T08:42:41.707Z,11.8
2017-04-24T08:43:43.846Z,11.6
2017-04-24T08:44:45.681Z,11.7
2017-04-24T08:45:47.489Z,12
2017-04-24T08:46:49.297Z,12.4
2017-04-24T08:47:51.103Z,12.4
2017-04-24T08:48:52.913Z,12.4
2017-04-24T08:49:54.708Z,12.6
2017-04-24T08:50:56.847Z,12.5
2017-04-24T08:51:58.649Z,12.5
2017-04-24T08:53:00.792Z,12.5
2017-04-24T08:54:02.612Z,12.3
2017-04-24T08:55:04.421Z,12.1
2017-04-24T08:56:06.226Z,12.1
2017-04-24T08:57:08.021Z,12.2
2017-04-24T08:58:09.825Z,12.3
2017-04-24T08:59:11.621Z,12.4
2017-04-24T09:00:13.421Z,12.5
2017-04-24T09:01:15.233Z,12.5
2017-04-24T09:02:17.299Z,12.4
2017-04-24T09:03:19.783Z,12.4
2017-04-24T09:04:21.947Z,12.8
2017-04-24T09:05:24.126Z,13.1
2017-04-24T09:06:25.929Z,12.7
2017-04-24T09:07:27.732Z,12.4
2017-04-24T09:08:29.532Z,12.7
2017-04-24T09:09:31.331Z,12.8
2017-04-24T09:10:33.134Z,12.7
2017-04-24T09:11:35.483Z,12.9
2017-04-24T09:12:37.292Z,13
2017-04-24T09:13:39.145Z,13.5
2017-04-24T09:14:41.349Z,12.9
2017-04-24T09:15:43.153Z,13.3
2017-04-24T09:16:45.077Z,13.4
2017-04-24T09:17:46.880Z,13.2
2017-04-24T09:18:49.054Z,13.4
2017-04-24T09:19:50.874Z,13.6
2017-04-24T09:20:53.035Z,14
2017-04-24T09:21:54.837Z,13.7
2017-04-24T09:22:56.639Z,13.9
2017-04-24T09:23:58.441Z,14
2017-04-24T09:25:00.258Z,13.6
2017-04-24T09:26:02.068Z,13.7
2017-04-24T09:27:03.875Z,13.2
2017-04-24T09:28:05.678Z,13.8
2017-04-24T09:29:07.486Z,14.1
2017-04-24T09:30:09.632Z,13.5
2017-04-24T09:31:11.459Z,13.7
2017-04-24T09:32:13.272Z,13.6
2017-04-24T09:33:15.075Z,13.7
2017-04-24T09:34:16.990Z,14.2
2017-04-24T09:35:18.789Z,14
2017-04-24T09:36:21.088Z,13.6
2017-04-24T09:37:22.970Z,13.8
2017-04-24T09:38:24.773Z,13.5
2017-04-24T09:39:26.938Z,13.5
2017-04-24T09:40:29.282Z,13.5
2017-04-24T09:41:31.131Z,13.4
2017-04-24T09:42:33.137Z,13.4
2017-04-24T09:43:35.313Z,13.3
2017-04-24T09:44:37.133Z,13.6
2017-04-24T09:45:38.938Z,13.7
2017-04-24T09:46:40.801Z,14
2017-04-24T09:47:42.995Z,13.6
2017-04-24T09:48:44.885Z,13.2
2017-04-24T09:49:46.688Z,13.5
2017-04-24T09:50:48.488Z,13.8
2017-04-24T09:51:50.294Z,13.4
2017-04-24T09:52:52.099Z,13.9
2017-04-24T09:53:53.898Z,14
2017-04-24T09:54:56.206Z,14
2017-04-24T09:55:58.066Z,14.1
2017-04-24T09:57:00.247Z,14.1
2017-04-24T09:58:02.068Z,14
2017-04-24T09:59:04.242Z,13.7
2017-04-24T10:00:06.050Z,14.2
2017-04-24T10:01:07.860Z,14.1
2017-04-24T10:02:09.709Z,14.3
2017-04-24T10:03:12.028Z,13.8
2017-04-24T10:04:13.843Z,13.7
2017-04-24T10:05:15.676Z,14.3
2017-04-24T10:06:17.476Z,14.4
2017-04-24T10:07:19.286Z,14.4
2017-04-24T10:08:21.429Z,14.2
2017-04-24T10:09:23.281Z,14.3
2017-04-24T10:10:25.080Z,14.4
2017-04-24T10:11:26.954Z,14.2
2017-04-24T10:12:28.807Z,14.2
2017-04-24T10:13:30.662Z,14.7
2017-04-24T10:14:32.506Z,14.7
2017-04-24T10:15:34.353Z,14.5
2017-04-24T10:16:36.161Z,14.8
2017-04-24T10:17:37.967Z,15
2017-04-24T10:18:39.767Z,15
2017-04-24T10:19:41.918Z,15
2017-04-24T10:20:43.739Z,14.7
2017-04-24T10:21:45.540Z,14.2
2017-04-24T10:22:47.746Z,14.6
2017-04-24T10:23:49.921Z,14.7
2017-04-24T10:24:51.736Z,14.4
2017-04-24T10:25:53.889Z,14.5
2017-04-24T10:26:55.717Z,14
2017-04-24T10:27:57.547Z,14.8
2017-04-24T10:28:59.701Z,15.2
2017-04-24T10:30:01.509Z,15.2
2017-04-24T10:31:03.311Z,15.1
2017-04-24T10:32:05.115Z,15.3
2017-04-24T10:33:06.916Z,15.6
2017-04-24T10:34:08.724Z,15.4
2017-04-24T10:35:10.526Z,15.8
2017-04-24T10:36:12.680Z,15.7
2017-04-24T10:37:14.495Z,15.8
2017-04-24T10:38:16.310Z,15.8
2017-04-24T10:39:18.452Z,15.4
2017-04-24T10:40:20.256Z,15.9
2017-04-24T10:41:22.066Z,16
2017-04-24T10:42:24.211Z,16.8
2017-04-24T10:43:26.029Z,16.5
2017-04-24T10:44:28.180Z,17.1
2017-04-24T10:45:30.007Z,16.8
2017-04-24T10:46:31.821Z,17.2
2017-04-24T10:47:33.628Z,17.3
2017-04-24T10:48:35.453Z,17.2
2017-04-24T10:49:37.262Z,17.2
2017-04-24T10:50:39.071Z,17.1
2017-04-24T10:51:41.223Z,16.7
2017-04-24T10:52:43.421Z,16.9
2017-04-24T10:53:45.234Z,17.5
2017-04-24T10:54:47.043Z,17.8
2017-04-24T10:55:48.851Z,18.1
2017-04-24T10:56:51.279Z,17.7
2017-04-24T10:57:53.124Z,17.7
2017-04-24T10:58:54.943Z,17.4
2017-04-24T10:59:56.751Z,18.1
2017-04-24T11:00:59.247Z,18.4
2017-04-24T11:02:01.104Z,18.1
2017-04-24T11:03:02.913Z,18.3
2017-04-24T11:04:05.069Z,18.2
2017-04-24T11:05:06.886Z,18.3
2017-04-24T11:06:08.704Z,18.2
2017-04-24T11:07:10.526Z,18
2017-04-24T11:08:12.693Z,17.9
2017-04-24T11:09:14.847Z,17.8
2017-04-24T11:10:16.689Z,17.6
2017-04-24T11:11:18.840Z,17.6
2017-04-24T11:12:20.668Z,17.2
2017-04-24T11:13:22.480Z,17.4
2017-04-24T11:14:24.651Z,17.5
2017-04-24T11:15:26.470Z,17.1
2017-04-24T11:16:28.760Z,17.3
2017-04-24T11:17:30.616Z,17.3
2017-04-24T11:18:32.457Z,17
2017-04-24T11:19:34.646Z,17
2017-04-24T11:20:36.455Z,16.8
2017-04-24T11:21:38.266Z,17.1
2017-04-24T11:22:40.074Z,17.3
2017-04-24T11:23:41.885Z,17.2
2017-04-24T11:24:43.696Z,17.7
2017-04-24T11:25:46.068Z,17.6
2017-04-24T11:26:47.877Z,17.2
2017-04-24T11:27:49.897Z,16.8
2017-04-24T11:28:52.404Z,16.6
2017-04-24T11:29:54.245Z,16.5
2017-04-24T11:30:56.622Z,16.5
2017-04-24T11:31:58.717Z,16.5
2017-04-24T11:33:00.558Z,16.3
2017-04-24T11:34:02.379Z,16.3
2017-04-24T11:35:04.238Z,16.4
2017-04-24T11:36:06.092Z,16.9
2017-04-24T11:37:07.921Z,16.3
2017-04-24T11:38:10.073Z,16.1
2017-04-24T11:39:11.909Z,16.5
2017-04-24T11:40:13.723Z,16
2017-04-24T11:41:15.866Z,16.4
2017-04-24T11:42:17.702Z,16.3
2017-04-24T11:43:19.519Z,17.1
2017-04-24T11:44:21.328Z,17
2017-04-24T11:45:23.292Z,16.7
2017-04-24T11:46:25.096Z,16.7
2017-04-24T11:47:26.905Z,16.5
2017-04-24T11:48:29.051Z,16.4
2017-04-24T11:49:30.872Z,16.5
2017-04-24T11:50:32.679Z,16.1
2017-04-24T11:51:34.494Z,15.8
2017-04-24T11:52:37.043Z,15.9
2017-04-24T11:53:38.851Z,15.8
2017-04-24T11:54:40.657Z,15.8
2017-04-24T11:55:42.465Z,15.6
2017-04-24T11:56:45.244Z,15.7
2017-04-24T11:57:47.723Z,16.1
2017-04-24T11:58:49.869Z,15.9
2017-04-24T11:59:51.955Z,16
2017-04-24T12:00:53.810Z,15.6
2017-04-24T12:01:55.615Z,15.7
2017-04-24T12:02:57.797Z,15.9
2017-04-24T12:03:59.948Z,16.3
2017-04-24T12:05:02.384Z,16.5
2017-04-24T12:06:04.874Z,16.2
2017-04-24T12:07:06.889Z,16.6
2017-04-24T12:08:09.573Z,16.2
2017-04-24T12:09:11.400Z,15.8
2017-04-24T12:10:13.240Z,16
2017-04-24T12:11:16.075Z,16.2
2017-04-24T12:12:18.085Z,16.5
2017-04-24T12:13:19.938Z,16.4
2017-04-24T12:14:22.085Z,16.4
2017-04-24T12:15:23.925Z,16.3
2017-04-24T12:16:25.740Z,16.6
2017-04-24T12:17:27.550Z,16.8
2017-04-24T12:18:29.358Z,16.7
2017-04-24T12:19:31.196Z,16.5
2017-04-24T12:20:33.413Z,17.1
2017-04-24T12:21:35.322Z,16.6
2017-04-24T12:22:37.127Z,17.1
2017-04-24T12:23:38.938Z,17.4
2017-04-24T12:24:40.743Z,17.5
2017-04-24T12:25:42.554Z,17.3
2017-04-24T12:26:44.404Z,16.9
2017-04-24T12:27:46.300Z,16.6
2017-04-24T12:28:48.497Z,16
2017-04-24T12:29:50.307Z,16.7
2017-04-24T12:30:52.111Z,16.6
2017-04-24T12:31:54.274Z,16.6
2017-04-24T12:32:56.457Z,17
2017-04-24T12:33:58.271Z,17.1
2017-04-24T12:35:00.114Z,17.3
2017-04-24T12:36:01.921Z,16.8
2017-04-24T12:37:04.134Z,16.5
2017-04-24T12:38:06.427Z,16.9
2017-04-24T12:39:08.618Z,16.6
2017-04-24T12:40:10.431Z,16.5
2017-04-24T12:41:12.236Z,16.4
2017-04-24T12:42:14.088Z,16.4
2017-04-24T12:43:15.990Z,16.8
2017-04-24T12:44:17.800Z,16.7
2017-04-24T12:45:19.604Z,16.3
2017-04-24T12:46:21.411Z,16.4
2017-04-24T12:47:23.222Z,16.9
2017-04-24T12:48:25.032Z,17.6
2017-04-24T12:49:27.195Z,17.1
2017-04-24T12:50:29.050Z,17.1
2017-04-24T12:51:30.937Z,16.6
2017-04-24T12:52:32.765Z,16.7
2017-04-24T12:53:34.572Z,16.6
2017-04-24T12:54:36.378Z,16.6
2017-04-24T12:55:38.185Z,16.6
2017-04-24T12:56:39.994Z,16.3
2017-04-24T12:57:41.802Z,16.5
2017-04-24T12:58:43.615Z,16.9
2017-04-24T12:59:45.983Z,17
2017-04-24T13:00:48.141Z,16.4
2017-04-24T13:01:50.309Z,16.7
2017-04-24T13:02:52.139Z,16.4
2017-04-24T13:03:53.957Z,16.9
2017-04-24T13:04:56.111Z,16.7
2017-04-24T13:05:58.267Z,17.1
2017-04-24T13:07:00.097Z,17.1
2017-04-24T13:08:01.901Z,17.2
2017-04-24T13:09:03.709Z,17.5
2017-04-24T13:10:05.514Z,17.4
2017-04-24T13:11:07.359Z,16.7
2017-04-24T13:12:09.166Z,17.1
2017-04-24T13:13:11.058Z,17.2
2017-04-24T13:14:12.870Z,17.3
2017-04-24T13:15:15.168Z,16.6
2017-04-24T13:16:17.041Z,17.1
2017-04-24T13:17:18.842Z,17.2
2017-04-24T13:18:20.653Z,16.9
2017-04-24T13:19:22.463Z,17
2017-04-24T13:20:24.270Z,17.3
2017-04-24T13:21:26.124Z,17.4
2017-04-24T13:22:28.018Z,17.2
2017-04-24T13:23:29.827Z,17.2
2017-04-24T13:24:31.633Z,17
2017-04-24T13:25:33.822Z,17.3
2017-04-24T13:26:35.629Z,17.5
2017-04-24T13:27:37.456Z,17.4
2017-04-24T13:28:39.602Z,17.5
2017-04-24T13:29:41.754Z,17.8
2017-04-24T13:30:43.562Z,17.8
2017-04-24T13:31:45.372Z,17.7
2017-04-24T13:32:47.183Z,17.6
2017-04-24T13:33:49.000Z,17.8
2017-04-24T13:34:51.236Z,17.7
2017-04-24T13:35:53.039Z,17.5
2017-04-24T13:36:54.948Z,17.2
2017-04-24T13:37:57.123Z,17
2017-04-24T13:38:59.607Z,17
2017-04-24T13:40:02.094Z,16.9
2017-04-24T13:41:03.944Z,17
2017-04-24T13:42:05.760Z,16.9
2017-04-24T13:43:07.568Z,17.4
2017-04-24T13:44:09.709Z,17.8
2017-04-24T13:45:11.514Z,17.4
2017-04-24T13:46:13.320Z,17.3
2017-04-24T13:47:15.137Z,17.5
2017-04-24T13:48:16.964Z,17.5
2017-04-24T13:49:18.885Z,17.1
2017-04-24T13:50:21.180Z,16.7
2017-04-24T13:51:23.027Z,16.5
2017-04-24T13:52:24.868Z,16.5
2017-04-24T13:53:27.315Z,16.3
2017-04-24T13:54:29.123Z,16.4
2017-04-24T13:55:31.268Z,16.4
2017-04-24T13:56:33.079Z,16.6
2017-04-24T13:57:34.887Z,16.9
2017-04-24T13:58:37.037Z,17.3
2017-04-24T13:59:38.843Z,17.1
2017-04-24T14:00:40.660Z,17.1
2017-04-24T14:01:42.470Z,17
2017-04-24T14:02:44.280Z,16.7
2017-04-24T14:03:46.082Z,17.1